Time;durP1;ratioP1;P1;durP2;ratioP2;P2;SDS_P1;SDS_P2;PMS_P1;PMS_P2;Temp;Humidity;BMP_temperature;BMP_pressure;BME280_temperature;BME280_humidity;BME280_pressure;Samples;Min_cycle;Max_cycle;Signal;HPM_P1;HPM_P2
2022/08/02 00:01:45;;;;;;;;;;;;;;;19.25;79.46;99558.63;5016301;28;20326;-76
2022/08/02 00:04:15;;;;;;;;;;;;;;;19.22;79.40;99555.28;5016119;28;19956;-73
2022/08/02 00:06:44;;;;;;;;;;;;;;;19.16;79.73;99553.81;5010216;28;19972;-76
2022/08/02 00:09:13;;;;;;;;;;;;;;;19.07;79.71;99546.38;5014772;28;19933;-74
2022/08/02 00:11:42;;;;;;;;;;;;;;;19.07;79.94;99548.13;5014695;28;19948;-74
2022/08/02 00:14:10;;;;;;;;;;;;;;;19.04;79.86;99548.22;5015483;28;19953;-75
2022/08/02 00:16:39;;;;;;;;;;;;;;;19.12;80.11;99546.22;4962441;28;19925;-76
2022/08/02 00:19:08;;;;;;;;;;;;;;;19.11;79.94;99550.53;5015094;28;19926;-74
2022/08/02 00:21:38;;;;;;;;;;;;;;;19.14;79.89;99554.75;5015631;28;19925;-75
2022/08/02 00:24:06;;;;;;;;;;;;;;;19.14;79.90;99555.59;5015613;28;20025;-74
2022/08/02 00:26:55;;;;;;;;;;;;;;;19.04;79.64;99554.25;5013685;28;19926;-74
2022/08/02 00:29:24;;;;;;;;;;;;;;;18.99;79.60;99560.50;4980923;28;19925;-74
2022/08/02 00:31:53;;;;;;;;;;;;;;;18.91;80.10;99572.88;5016525;28;20398;-74
2022/08/02 00:34:22;;;;;;;;;;;;;;;18.94;80.12;99571.00;4996534;28;19983;-74
2022/08/02 00:36:59;;;;;;;;;;;;;;;19.02;80.47;99560.38;5015272;28;19930;-73
2022/08/02 00:39:28;;;;;;;;;;;;;;;19.12;80.27;99557.38;4998211;28;20318;-75
2022/08/02 00:42:01;;;;;;;;;;;;;;;19.20;80.30;99560.53;5013823;28;19925;-73
2022/08/02 00:44:30;;;;;;;;;;;;;;;19.24;79.90;99566.44;5014749;28;19968;-74
2022/08/02 00:46:58;;;;;;;;;;;;;;;19.26;79.82;99559.47;5014570;28;19961;-75
2022/08/02 00:49:27;;;;;;;;;;;;;;;19.30;79.83;99561.03;5013747;28;19925;-73
2022/08/02 00:51:55;;;;;;;;;;;;;;;19.32;79.85;99561.81;5014333;28;19930;-74
2022/08/02 00:54:25;;;;;;;;;;;;;;;19.32;79.90;99564.41;5014820;28;19933;-74
2022/08/02 00:56:54;;;;;;;;;;;;;;;19.36;79.67;99561.66;4997669;28;20268;-75
2022/08/02 00:59:22;;;;;;;;;;;;;;;19.37;79.69;99567.69;5014973;28;19926;-76
2022/08/02 01:01:51;;;;;;;;;;;;;;;19.34;79.83;99571.22;5013723;28;20421;-75
2022/08/02 01:04:25;;;;;;;;;;;;;;;19.32;79.70;99567.84;5014392;28;19988;-75
2022/08/02 01:06:59;;;;;;;;;;;;;;;19.29;79.77;99569.72;5012855;28;19989;-75
2022/08/02 01:09:29;;;;;;;;;;;;;;;19.31;79.80;99575.69;5014701;28;19926;-75
2022/08/02 01:11:58;;;;;;;;;;;;;;;19.28;79.76;99571.44;5014748;28;19925;-75
2022/08/02 01:14:30;;;;;;;;;;;;;;;19.31;79.54;99567.91;4997564;28;20032;-75
2022/08/02 01:17:03;;;;;;;;;;;;;;;19.22;79.41;99563.91;5014530;28;19926;-74
2022/08/02 01:19:34;;;;;;;;;;;;;;;19.10;79.65;99573.88;5015188;28;20397;-75
2022/08/02 01:22:13;;;;;;;;;;;;;;;19.01;79.66;99580.22;5013734;28;19925;-75
2022/08/02 01:24:56;;;;;;;;;;;;;;;18.95;80.03;99574.44;5012246;28;20429;-75
2022/08/02 01:27:33;;;;;;;;;;;;;;;18.89;80.08;99590.16;5010338;28;19925;-75
2022/08/02 01:30:06;;;;;;;;;;;;;;;18.82;80.58;99589.56;4995778;28;19926;-74
2022/08/02 01:32:37;;;;;;;;;;;;;;;18.80;80.89;99586.19;5014118;28;19926;-74
2022/08/02 01:35:09;;;;;;;;;;;;;;;18.81;80.76;99581.88;5014184;28;19926;-76
2022/08/02 01:37:39;;;;;;;;;;;;;;;18.84;80.94;99584.31;5014187;28;19929;-76
2022/08/02 01:40:09;;;;;;;;;;;;;;;18.81;80.86;99581.88;5014130;28;19979;-76
2022/08/02 01:42:38;;;;;;;;;;;;;;;18.86;81.15;99590.31;5014356;28;19980;-76
2022/08/02 01:45:12;;;;;;;;;;;;;;;18.90;81.02;99591.88;5013002;28;19980;-74
2022/08/02 01:47:41;;;;;;;;;;;;;;;18.94;81.08;99590.84;4996452;28;19925;-74
2022/08/02 01:50:12;;;;;;;;;;;;;;;18.95;80.87;99595.13;5004256;28;19929;-76
2022/08/02 01:52:43;;;;;;;;;;;;;;;18.92;80.88;99592.66;5015494;28;19932;-76
2022/08/02 01:55:23;;;;;;;;;;;;;;;18.86;80.68;99595.47;5015421;28;20050;-76
2022/08/02 01:58:13;;;;;;;;;;;;;;;18.73;80.82;99590.72;4995003;28;19925;-74
2022/08/02 02:00:44;;;;;;;;;;;;;;;18.70;80.96;99589.97;5013396;28;20414;-74
2022/08/02 02:03:16;;;;;;;;;;;;;;;18.64;80.98;99585.03;5014415;28;19925;-75
2022/08/02 02:05:47;;;;;;;;;;;;;;;18.55;81.18;99585.34;5012699;28;19932;-74
2022/08/02 02:08:16;;;;;;;;;;;;;;;18.48;81.24;99595.06;5014112;28;19925;-74
2022/08/02 02:10:56;;;;;;;;;;;;;;;18.42;81.45;99589.22;5012693;28;19932;-75
2022/08/02 02:13:45;;;;;;;;;;;;;;;18.40;81.70;99588.44;5011573;28;19925;-75
2022/08/02 02:16:16;;;;;;;;;;;;;;;18.42;81.79;99584.91;5007619;28;20375;-75
2022/08/02 02:18:45;;;;;;;;;;;;;;;18.35;81.87;99593.75;5014974;28;19926;-76
2022/08/02 02:21:15;;;;;;;;;;;;;;;18.39;81.81;99600.50;4995050;28;19933;-76
2022/08/02 02:23:44;;;;;;;;;;;;;;;18.41;81.57;99593.53;4994949;28;19989;-76
2022/08/02 02:26:15;;;;;;;;;;;;;;;18.42;81.69;99605.59;4995195;28;19952;-76
2022/08/02 02:29:00;;;;;;;;;;;;;;;18.35;81.46;99603.25;5012113;28;19925;-76
2022/08/02 02:31:33;;;;;;;;;;;;;;;18.25;81.61;99602.72;5015055;28;19999;-76
2022/08/02 02:34:03;;;;;;;;;;;;;;;18.22;81.63;99610.56;5014741;28;20461;-76
2022/08/02 02:36:33;;;;;;;;;;;;;;;18.16;82.02;99602.16;5014330;28;19975;-74
2022/08/02 02:39:04;;;;;;;;;;;;;;;18.15;82.06;99611.66;5014319;28;20120;-75
2022/08/02 02:41:40;;;;;;;;;;;;;;;18.09;82.07;99602.34;5010700;28;20017;-73
2022/08/02 02:44:10;;;;;;;;;;;;;;;18.13;82.03;99604.84;4995943;28;19953;-74
2022/08/02 02:46:41;;;;;;;;;;;;;;;18.20;82.21;99609.78;4995914;28;19925;-74
2022/08/02 02:49:11;;;;;;;;;;;;;;;18.21;82.21;99606.28;5013261;28;19925;-74
2022/08/02 02:51:41;;;;;;;;;;;;;;;18.13;82.07;99610.84;5011884;28;19925;-74
2022/08/02 02:54:11;;;;;;;;;;;;;;;18.08;82.23;99610.16;5012722;28;19926;-75
2022/08/02 02:57:00;;;;;;;;;;;;;;;18.00;81.93;99612.13;5013540;28;19925;-74
2022/08/02 02:59:29;;;;;;;;;;;;;;;17.95;82.06;99620.03;5013296;28;19925;-73
2022/08/02 03:01:59;;;;;;;;;;;;;;;17.96;82.26;99620.88;5012846;28;20383;-76
2022/08/02 03:04:28;;;;;;;;;;;;;;;17.97;82.39;99625.16;5011867;28;19944;-76
2022/08/02 03:07:17;;;;;;;;;;;;;;;17.96;82.40;99626.06;5008024;28;20401;-76
2022/08/02 03:09:45;;;;;;;;;;;;;;;17.96;82.55;99621.75;5016043;28;20367;-76
2022/08/02 03:12:23;;;;;;;;;;;;;;;18.08;82.67;99620.50;5014708;28;19929;-76
2022/08/02 03:14:58;;;;;;;;;;;;;;;18.22;82.73;99623.47;5017608;28;20382;-75
2022/08/02 03:17:37;;;;;;;;;;;;;;;18.33;82.57;99623.13;5015805;28;19980;-75
2022/08/02 03:20:08;;;;;;;;;;;;;;;18.37;82.30;99620.41;5018166;28;19925;-74
2022/08/02 03:22:36;;;;;;;;;;;;;;;18.43;81.93;99627.06;5016201;28;19929;-75
2022/08/02 03:25:06;;;;;;;;;;;;;;;18.47;81.71;99623.53;5015892;28;19926;-74
2022/08/02 03:27:34;;;;;;;;;;;;;;;18.42;81.42;99621.09;5004968;28;19932;-74
2022/08/02 03:30:04;;;;;;;;;;;;;;;18.44;81.40;99624.47;5013812;28;19932;-76
2022/08/02 03:32:35;;;;;;;;;;;;;;;18.45;81.08;99626.13;5014581;28;19988;-74
2022/08/02 03:35:05;;;;;;;;;;;;;;;18.50;81.05;99623.47;5015140;28;19930;-77
2022/08/02 03:37:36;;;;;;;;;;;;;;;18.52;81.20;99619.88;5014236;28;20406;-75
2022/08/02 03:40:07;;;;;;;;;;;;;;;18.54;81.28;99631.06;5016559;28;20375;-76
2022/08/02 03:42:35;;;;;;;;;;;;;;;18.58;81.29;99632.63;5016071;28;19969;-76
2022/08/02 03:45:04;;;;;;;;;;;;;;;18.58;81.19;99632.63;5014093;28;20379;-75
2022/08/02 03:47:38;;;;;;;;;;;;;;;18.57;80.92;99630.91;5015246;28;20379;-76
2022/08/02 03:50:07;;;;;;;;;;;;;;;18.57;81.21;99630.09;5003372;28;19933;-77
2022/08/02 03:52:36;;;;;;;;;;;;;;;18.51;81.24;99636.31;4998335;28;19956;-76
2022/08/02 03:55:05;;;;;;;;;;;;;;;18.51;81.48;99636.31;4998692;28;20024;-76
2022/08/02 03:57:36;;;;;;;;;;;;;;;18.44;81.60;99633.94;5015513;28;19925;-74
2022/08/02 04:00:06;;;;;;;;;;;;;;;18.49;81.63;99630.34;5014733;28;19925;-74
2022/08/02 04:02:40;;;;;;;;;;;;;;;18.54;81.64;99637.97;4994055;28;20498;-74
2022/08/02 04:05:09;;;;;;;;;;;;;;;18.57;81.58;99638.69;5016116;28;19926;-74
2022/08/02 04:07:37;;;;;;;;;;;;;;;18.60;81.56;99636.00;5014769;28;19971;-73
2022/08/02 04:10:26;;;;;;;;;;;;;;;18.67;81.44;99641.78;5015603;28;19940;-75
2022/08/02 04:12:55;;;;;;;;;;;;;;;18.70;81.64;99642.56;5016917;28;20364;-73
2022/08/02 04:15:23;;;;;;;;;;;;;;;18.78;81.60;99642.28;5016727;28;19963;-73
2022/08/02 04:17:56;;;;;;;;;;;;;;;18.87;81.20;99651.47;4999673;28;19941;-73
2022/08/02 04:20:27;;;;;;;;;;;;;;;18.97;81.31;99645.06;5012124;28;19956;-74
2022/08/02 04:22:58;;;;;;;;;;;;;;;19.03;81.03;99655.19;5012726;28;20403;-74
2022/08/02 04:25:27;;;;;;;;;;;;;;;19.05;81.00;99658.59;5015501;28;19926;-75
2022/08/02 04:28:03;;;;;;;;;;;;;;;19.11;80.61;99668.72;5015774;28;19971;-76
2022/08/02 04:30:46;;;;;;;;;;;;;;;19.17;80.68;99665.91;5014222;28;19929;-76
2022/08/02 04:33:16;;;;;;;;;;;;;;;19.23;80.52;99665.69;5015118;28;19926;-74
2022/08/02 04:35:45;;;;;;;;;;;;;;;19.28;80.21;99674.13;4997958;28;19926;-74
2022/08/02 04:38:14;;;;;;;;;;;;;;;19.30;79.89;99665.41;5014270;28;19933;-76
2022/08/02 04:40:50;;;;;;;;;;;;;;;19.33;79.68;99664.47;5015192;28;19955;-75
2022/08/02 04:43:19;;;;;;;;;;;;;;;19.35;79.70;99662.66;5014245;28;20411;-76
2022/08/02 04:45:50;;;;;;;;;;;;;;;19.43;79.74;99665.84;5014888;28;19925;-75
2022/08/02 04:48:20;;;;;;;;;;;;;;;19.53;79.48;99662.00;5015435;28;19972;-75
2022/08/02 04:50:49;;;;;;;;;;;;;;;19.57;79.36;99665.31;5012853;28;19965;-76
2022/08/02 04:53:18;;;;;;;;;;;;;;;19.61;79.11;99654.78;5010518;28;19932;-75
2022/08/02 04:55:47;;;;;;;;;;;;;;;19.67;79.04;99648.53;5013956;28;19925;-74
2022/08/02 04:58:15;;;;;;;;;;;;;;;19.82;78.87;99651.38;5015167;28;20361;-75
2022/08/02 05:01:04;;;;;;;;;;;;;;;19.92;78.61;99655.31;5005881;28;19929;-75
2022/08/02 05:03:34;;;;;;;;;;;;;;;20.03;78.35;99662.66;5015068;28;19982;-76
2022/08/02 05:06:02;;;;;;;;;;;;;;;20.11;78.26;99659.78;5013964;28;20391;-77
2022/08/02 05:08:46;;;;;;;;;;;;;;;20.21;77.83;99666.25;5013124;28;19975;-77
2022/08/02 05:11:20;;;;;;;;;;;;;;;20.33;77.64;99665.78;5014511;28;20383;-77
2022/08/02 05:13:49;;;;;;;;;;;;;;;20.46;77.12;99667.00;5014803;28;20256;-77
2022/08/02 05:16:26;;;;;;;;;;;;;;;20.54;77.02;99670.94;5012559;28;21297;-76
2022/08/02 05:19:00;;;;;;;;;;;;;;;20.59;76.44;99668.16;5014870;28;20256;-75
2022/08/02 05:21:30;;;;;;;;;;;;;;;20.69;76.15;99674.66;5014864;28;19926;-76
2022/08/02 05:23:58;;;;;;;;;;;;;;;20.73;75.66;99678.84;5013021;28;19925;-76
2022/08/02 05:26:27;;;;;;;;;;;;;;;20.82;75.79;99675.84;5014433;28;20016;-75
2022/08/02 05:28:56;;;;;;;;;;;;;;;20.94;75.83;99672.72;5014250;28;19948;-76
2022/08/02 05:31:24;;;;;;;;;;;;;;;21.10;75.64;99678.09;5014305;28;20016;-76
2022/08/02 05:33:53;;;;;;;;;;;;;;;21.23;75.02;99672.34;5012994;28;19980;-78
2022/08/02 05:36:23;;;;;;;;;;;;;;;21.33;74.37;99673.59;5012188;28;20439;-76
2022/08/02 05:38:52;;;;;;;;;;;;;;;21.38;73.89;99665.59;5011130;28;20294;-73
2022/08/02 05:41:32;;;;;;;;;;;;;;;21.45;73.55;99660.97;5015504;28;19929;-73
2022/08/02 05:44:00;;;;;;;;;;;;;;;21.51;73.75;99660.69;5015846;28;19929;-74
2022/08/02 05:46:29;;;;;;;;;;;;;;;21.66;73.66;99670.38;5015440;28;19926;-74
2022/08/02 05:48:57;;;;;;;;;;;;;;;21.78;73.60;99664.63;5012664;28;19979;-74
2022/08/02 05:51:30;;;;;;;;;;;;;;;21.88;73.20;99665.91;5007415;28;20755;-76
2022/08/02 05:54:02;;;;;;;;;;;;;;;21.97;72.80;99665.47;5002284;28;19926;-76
2022/08/02 05:56:35;;;;;;;;;;;;;;;22.08;72.42;99673.59;5005737;28;19988;-76
2022/08/02 05:59:04;;;;;;;;;;;;;;;22.16;71.89;99671.50;5005002;28;20402;-76
2022/08/02 06:01:35;;;;;;;;;;;;;;;22.22;71.52;99686.78;4993961;28;19929;-77
2022/08/02 06:04:05;;;;;;;;;;;;;;;22.31;71.31;99686.38;5011840;28;20012;-76
2022/08/02 06:06:36;;;;;;;;;;;;;;;22.44;70.89;99692.63;5006856;28;19925;-73
2022/08/02 06:09:08;;;;;;;;;;;;;;;22.53;70.59;99697.38;5009501;28;19926;-74
2022/08/02 06:11:39;;;;;;;;;;;;;;;22.57;70.36;99698.94;5012726;28;19929;-77
2022/08/02 06:14:08;;;;;;;;;;;;;;;22.55;69.98;99705.13;4990715;28;19972;-74
2022/08/02 06:16:36;;;;;;;;;;;;;;;22.51;69.96;99709.63;5000873;28;19980;-74
2022/08/02 06:19:11;;;;;;;;;;;;;;;22.48;69.86;99703.75;5007482;28;20364;-73
2022/08/02 06:21:42;;;;;;;;;;;;;;;22.53;70.12;99705.19;5010750;28;19948;-74
2022/08/02 06:24:32;;;;;;;;;;;;;;;22.70;69.84;99713.97;5006332;28;19979;-74
2022/08/02 06:27:02;;;;;;;;;;;;;;;22.74;69.62;99712.91;5011514;28;20000;-73
2022/08/02 06:29:32;;;;;;;;;;;;;;;22.82;69.11;99708.16;5009535;28;19929;-73
2022/08/02 06:32:07;;;;;;;;;;;;;;;22.92;68.75;99711.97;5006085;28;19930;-74
2022/08/02 06:34:37;;;;;;;;;;;;;;;22.88;68.37;99720.84;5013329;28;19926;-74
2022/08/02 06:37:12;;;;;;;;;;;;;;;22.87;68.20;99712.19;5012593;28;19925;-74
2022/08/02 06:39:45;;;;;;;;;;;;;;;22.92;67.71;99719.78;5010934;28;19933;-74
2022/08/02 06:42:16;;;;;;;;;;;;;;;22.95;67.57;99730.03;4994382;28;19926;-73
2022/08/02 06:44:55;;;;;;;;;;;;;;;22.95;67.68;99724.84;4949262;28;20052;-74
2022/08/02 06:47:26;;;;;;;;;;;;;;;22.95;67.56;99727.44;4985902;28;19936;-76
2022/08/02 06:49:57;;;;;;;;;;;;;;;22.94;67.55;99723.16;4992186;28;20032;-76
2022/08/02 06:52:27;;;;;;;;;;;;;;;22.88;67.32;99726.06;5011249;28;19976;-74
2022/08/02 06:54:58;;;;;;;;;;;;;;;22.89;67.26;99725.16;5009937;28;19934;-73
2022/08/02 06:57:27;;;;;;;;;;;;;;;22.97;67.36;99725.59;5011193;28;19925;-73
2022/08/02 06:59:55;;;;;;;;;;;;;;;23.02;67.45;99727.06;4996962;28;20076;-74
2022/08/02 07:02:23;;;;;;;;;;;;;;;23.05;67.26;99726.91;5010743;28;19925;-75
2022/08/02 07:04:52;;;;;;;;;;;;;;;23.01;67.51;99724.53;5011978;28;19929;-75
2022/08/02 07:07:20;;;;;;;;;;;;;;;23.03;67.81;99730.50;5012835;28;19926;-73
2022/08/02 07:09:50;;;;;;;;;;;;;;;23.20;67.79;99730.50;5011796;28;19940;-76
2022/08/02 07:12:32;;;;;;;;;;;;;;;23.43;67.39;99727.56;5013125;28;20020;-73
2022/08/02 07:15:02;;;;;;;;;;;;;;;23.64;66.79;99716.00;5013900;28;19980;-75
2022/08/02 07:17:31;;;;;;;;;;;;;;;23.88;66.40;99714.66;5012849;28;19926;-74
2022/08/02 07:20:00;;;;;;;;;;;;;;;24.10;65.58;99713.53;5011123;28;19929;-75
2022/08/02 07:22:28;;;;;;;;;;;;;;;24.34;65.29;99722.59;5011446;28;19929;-75
2022/08/02 07:24:59;;;;;;;;;;;;;;;24.50;64.31;99716.41;5013775;28;19925;-75
2022/08/02 07:27:28;;;;;;;;;;;;;;;24.60;63.39;99714.13;5009882;28;19926;-75
2022/08/02 07:29:57;;;;;;;;;;;;;;;24.71;63.12;99716.97;5010401;28;19979;-75
2022/08/02 07:32:27;;;;;;;;;;;;;;;24.84;62.91;99714.50;4986667;28;19976;-75
2022/08/02 07:34:56;;;;;;;;;;;;;;;24.94;61.98;99713.03;5009651;28;20017;-75
2022/08/02 07:37:27;;;;;;;;;;;;;;;25.14;61.36;99716.16;5008497;28;19936;-75
2022/08/02 07:40:18;;;;;;;;;;;;;;;25.34;58.72;99714.13;5010468;28;19930;-75
2022/08/02 07:42:50;;;;;;;;;;;;;;;25.49;59.06;99723.66;4994235;28;19932;-76
2022/08/02 07:45:22;;;;;;;;;;;;;;;25.58;59.25;99715.28;5005610;28;19932;-76
2022/08/02 07:47:50;;;;;;;;;;;;;;;25.69;57.15;99707.59;5010383;28;19926;-76
2022/08/02 07:50:19;;;;;;;;;;;;;;;25.80;55.94;99720.81;5007777;28;19988;-74
2022/08/02 07:52:48;;;;;;;;;;;;;;;25.86;54.88;99720.47;4976699;28;19925;-75
2022/08/02 07:55:26;;;;;;;;;;;;;;;26.01;54.59;99714.25;5012608;28;20438;-75
2022/08/02 07:58:08;;;;;;;;;;;;;;;26.13;53.78;99726.56;5015953;28;19925;-75
2022/08/02 08:00:40;;;;;;;;;;;;;;;26.23;53.02;99722.44;5016419;28;20419;-76
2022/08/02 08:03:08;;;;;;;;;;;;;;;26.27;52.42;99712.63;5016139;28;19929;-74
2022/08/02 08:05:41;;;;;;;;;;;;;;;26.26;52.16;99713.56;5014216;28;19980;-75
2022/08/02 08:08:10;;;;;;;;;;;;;;;26.31;52.23;99709.72;4983031;28;19969;-74
2022/08/02 08:10:46;;;;;;;;;;;;;;;26.45;52.45;99720.13;5017267;28;20301;-74
2022/08/02 08:13:14;;;;;;;;;;;;;;;26.58;52.14;99705.31;5017245;28;19925;-76
2022/08/02 08:15:43;;;;;;;;;;;;;;;26.76;51.53;99712.88;5016531;28;19925;-75
2022/08/02 08:18:20;;;;;;;;;;;;;;;26.79;51.03;99712.69;4999338;28;19925;-75
2022/08/02 08:20:48;;;;;;;;;;;;;;;26.85;50.75;99714.91;5017472;28;19933;-75
2022/08/02 08:23:17;;;;;;;;;;;;;;;26.85;50.38;99710.50;5016997;28;20466;-75
2022/08/02 08:25:47;;;;;;;;;;;;;;;26.96;50.15;99715.88;4983302;28;19930;-76
2022/08/02 08:28:15;;;;;;;;;;;;;;;26.99;49.92;99718.28;5017118;28;20020;-74
2022/08/02 08:30:46;;;;;;;;;;;;;;;26.94;49.47;99722.16;5016729;28;19930;-76
2022/08/02 08:33:14;;;;;;;;;;;;;;;26.83;49.67;99728.09;5017040;28;20299;-76
2022/08/02 08:35:43;;;;;;;;;;;;;;;26.78;49.91;99727.56;4999190;28;19983;-75
2022/08/02 08:38:12;;;;;;;;;;;;;;;26.75;50.54;99730.41;5016652;28;19929;-76
2022/08/02 08:40:40;;;;;;;;;;;;;;;26.66;50.16;99727.53;5016554;28;20386;-76
2022/08/02 08:43:12;;;;;;;;;;;;;;;26.63;51.29;99725.09;5016794;28;19980;-76
2022/08/02 08:45:41;;;;;;;;;;;;;;;26.66;51.11;99727.53;5016679;28;20346;-76
2022/08/02 08:48:14;;;;;;;;;;;;;;;26.72;51.40;99727.09;5016305;28;19925;-76
2022/08/02 08:51:04;;;;;;;;;;;;;;;26.87;50.85;99737.47;5016469;28;19925;-74
2022/08/02 08:53:37;;;;;;;;;;;;;;;26.94;49.21;99740.50;5016577;28;20287;-75
2022/08/02 08:56:08;;;;;;;;;;;;;;;27.00;49.12;99743.53;4998843;28;19926;-76
2022/08/02 08:58:44;;;;;;;;;;;;;;;27.10;49.64;99739.38;5016061;28;20298;-75
2022/08/02 09:01:15;;;;;;;;;;;;;;;27.20;50.50;99750.06;5016178;28;19926;-74
2022/08/02 09:03:44;;;;;;;;;;;;;;;27.24;49.67;99748.91;4999180;28;19951;-74
2022/08/02 09:06:13;;;;;;;;;;;;;;;27.28;49.10;99739.91;5015591;28;19991;-75
2022/08/02 09:08:41;;;;;;;;;;;;;;;27.35;49.38;99750.81;5016467;28;19925;-74
2022/08/02 09:11:13;;;;;;;;;;;;;;;27.42;49.37;99750.31;5015701;28;20199;-74
2022/08/02 09:13:51;;;;;;;;;;;;;;;27.51;48.83;99746.22;5016517;28;19965;-75
2022/08/02 09:16:31;;;;;;;;;;;;;;;27.64;48.84;99745.25;5015856;28;19932;-74
2022/08/02 09:19:00;;;;;;;;;;;;;;;27.81;48.80;99744.09;5015952;28;19929;-75
2022/08/02 09:21:35;;;;;;;;;;;;;;;27.81;47.77;99747.53;5015844;28;19972;-75
2022/08/02 09:24:18;;;;;;;;;;;;;;;27.80;47.09;99751.13;5015566;28;20016;-75
2022/08/02 09:26:47;;;;;;;;;;;;;;;27.92;46.94;99745.00;5015581;28;20012;-76
2022/08/02 09:29:19;;;;;;;;;;;;;;;28.08;47.15;99744.75;5015574;28;19935;-75
2022/08/02 09:31:48;;;;;;;;;;;;;;;28.04;46.36;99752.97;5015452;28;19925;-75
2022/08/02 09:34:17;;;;;;;;;;;;;;;28.08;46.50;99751.78;5015437;28;20023;-75
2022/08/02 09:36:47;;;;;;;;;;;;;;;28.07;45.76;99758.00;5015220;28;19936;-76
2022/08/02 09:39:25;;;;;;;;;;;;;;;28.15;45.96;99750.41;5015368;28;19995;-76
2022/08/02 09:42:09;;;;;;;;;;;;;;;28.12;45.98;99755.91;5015245;28;19929;-75
2022/08/02 09:44:39;;;;;;;;;;;;;;;28.11;46.44;99752.44;5015658;28;20024;-75
2022/08/02 09:47:14;;;;;;;;;;;;;;;28.13;46.75;99757.56;5015540;28;20368;-75
2022/08/02 09:49:46;;;;;;;;;;;;;;;28.17;47.61;99740.66;5015237;28;19925;-77
2022/08/02 09:52:25;;;;;;;;;;;;;;;28.26;47.83;99732.94;4998944;28;19925;-76
2022/08/02 09:55:12;;;;;;;;;;;;;;;28.46;46.80;99731.47;4997892;28;19926;-75
2022/08/02 09:57:42;;;;;;;;;;;;;;;28.50;45.27;99743.47;4981975;28;20015;-75
2022/08/02 10:00:20;;;;;;;;;;;;;;;28.45;44.41;99732.44;5015160;28;19967;-75
2022/08/02 10:03:09;;;;;;;;;;;;;;;28.49;44.50;99739.97;5015260;28;19929;-76
2022/08/02 10:05:51;;;;;;;;;;;;;;;28.42;43.68;99737.91;5015696;28;19933;-76
2022/08/02 10:08:29;;;;;;;;;;;;;;;28.41;43.88;99736.25;5015256;28;20015;-75
2022/08/02 10:11:01;;;;;;;;;;;;;;;28.36;43.72;99735.75;5015312;28;19948;-75
2022/08/02 10:13:30;;;;;;;;;;;;;;;28.37;44.38;99734.78;5014901;28;19932;-75
2022/08/02 10:16:01;;;;;;;;;;;;;;;28.47;44.59;99734.00;5015195;28;20382;-76
2022/08/02 10:18:30;;;;;;;;;;;;;;;28.61;44.68;99726.91;5014637;28;19933;-76
2022/08/02 10:21:13;;;;;;;;;;;;;;;28.74;44.82;99725.06;5014616;28;19926;-76
2022/08/02 10:23:43;;;;;;;;;;;;;;;28.69;44.31;99735.06;5014635;28;19980;-75
2022/08/02 10:26:16;;;;;;;;;;;;;;;28.61;43.96;99722.50;5014870;28;20334;-75
2022/08/02 10:28:48;;;;;;;;;;;;;;;28.61;43.50;99719.88;4982101;28;19931;-74
2022/08/02 10:31:20;;;;;;;;;;;;;;;28.75;44.56;99714.44;5014955;28;19964;-74
2022/08/02 10:33:52;;;;;;;;;;;;;;;28.80;43.55;99727.22;5014611;28;19925;-74
2022/08/02 10:36:22;;;;;;;;;;;;;;;28.82;43.44;99720.09;5014324;28;19925;-73
2022/08/02 10:38:51;;;;;;;;;;;;;;;28.90;43.49;99723.78;5014423;28;20382;-74
2022/08/02 10:41:34;;;;;;;;;;;;;;;29.11;45.03;99721.31;5014709;28;20314;-74
2022/08/02 10:44:04;;;;;;;;;;;;;;;29.14;43.75;99715.84;5014003;28;19980;-74
2022/08/02 10:46:34;;;;;;;;;;;;;;;29.19;43.33;99719.84;5014213;28;19975;-75
2022/08/02 10:49:11;;;;;;;;;;;;;;;29.36;43.27;99721.16;5014995;28;19933;-74
2022/08/02 10:52:07;;;;;;;;;;;;;;;29.38;42.72;99715.78;5014011;28;20405;-76
2022/08/02 10:54:37;;;;;;;;;;;;;;;29.22;42.66;99718.75;5014623;28;19926;-74
2022/08/02 10:57:16;;;;;;;;;;;;;;;29.28;42.66;99713.00;5014171;28;19925;-75
2022/08/02 10:59:45;;;;;;;;;;;;;;;29.11;41.78;99701.13;5014388;28;20283;-76
2022/08/02 11:02:33;;;;;;;;;;;;;;;29.05;42.38;99711.28;5014070;28;19925;-73
2022/08/02 11:05:03;;;;;;;;;;;;;;;29.19;42.88;99704.06;5014588;28;19925;-75
2022/08/02 11:07:32;;;;;;;;;;;;;;;29.30;42.73;99705.03;5014134;28;20387;-74
2022/08/02 11:10:21;;;;;;;;;;;;;;;29.44;42.58;99694.25;5014035;28;19925;-74
2022/08/02 11:13:01;;;;;;;;;;;;;;;29.44;42.63;99696.91;5013780;28;20375;-71
2022/08/02 11:15:30;;;;;;;;;;;;;;;29.41;42.75;99697.13;5014076;28;19929;-70
2022/08/02 11:18:00;;;;;;;;;;;;;;;29.42;42.85;99693.56;5013974;28;20383;-74
2022/08/02 11:20:28;;;;;;;;;;;;;;;29.48;42.72;99693.06;5014174;28;19937;-72
2022/08/02 11:23:17;;;;;;;;;;;;;;;29.45;42.55;99688.88;5014228;28;20322;-70
2022/08/02 11:25:48;;;;;;;;;;;;;;;29.65;42.22;99689.94;5013681;28;20299;-70
2022/08/02 11:28:38;;;;;;;;;;;;;;;29.74;41.65;99689.19;5013969;28;19925;-70
2022/08/02 11:31:06;;;;;;;;;;;;;;;29.74;41.13;99683.94;5017793;28;19925;-70
2022/08/02 11:33:36;;;;;;;;;;;;;;;29.70;40.87;99685.16;5017659;28;20016;-70
2022/08/02 11:36:06;;;;;;;;;;;;;;;29.64;41.08;99683.84;5013585;28;19925;-71
2022/08/02 11:38:34;;;;;;;;;;;;;;;29.75;40.75;99683.00;5017518;28;19932;-72
2022/08/02 11:41:04;;;;;;;;;;;;;;;29.78;40.19;99680.97;5017549;28;19925;-74
2022/08/02 11:43:38;;;;;;;;;;;;;;;29.96;40.26;99680.47;5017875;28;20332;-74
2022/08/02 11:46:12;;;;;;;;;;;;;;;30.01;39.90;99681.78;5017763;28;19979;-73
2022/08/02 11:48:43;;;;;;;;;;;;;;;30.00;39.99;99680.09;5017530;28;19980;-73
2022/08/02 11:51:12;;;;;;;;;;;;;;;30.07;39.92;99694.44;5017414;28;19968;-71
2022/08/02 11:53:45;;;;;;;;;;;;;;;30.36;41.70;99677.13;5017475;28;19926;-70
2022/08/02 11:56:16;;;;;;;;;;;;;;;30.49;39.70;99677.81;5017600;28;20371;-70
2022/08/02 11:59:03;;;;;;;;;;;;;;;30.61;38.90;99690.91;5017505;28;19932;-71
2022/08/02 12:01:32;;;;;;;;;;;;;;;30.35;39.08;99680.72;5017282;28;19926;-74
2022/08/02 12:04:18;;;;;;;;;;;;;;;30.21;39.08;99683.59;5017118;28;19961;-74
2022/08/02 12:06:58;;;;;;;;;;;;;;;30.12;39.12;99683.53;5017121;28;19948;-74
2022/08/02 12:09:31;;;;;;;;;;;;;;;30.04;38.92;99675.44;5017600;28;20399;-70
2022/08/02 12:12:04;;;;;;;;;;;;;;;30.06;38.88;99669.06;5016974;28;19933;-71
2022/08/02 12:14:42;;;;;;;;;;;;;;;29.95;38.70;99676.13;5017384;28;19925;-70
2022/08/02 12:19:50;;;;;;;;;;;;;;;29.97;39.17;99675.06;5017082;28;19925;-73
2022/08/02 12:22:20;;;;;;;;;;;;;;;30.03;39.38;99674.59;4999378;28;19964;-71
2022/08/02 12:24:54;;;;;;;;;;;;;;;30.06;38.94;99669.06;5016818;28;19932;-73
2022/08/02 12:27:30;;;;;;;;;;;;;;;30.17;38.57;99660.28;5016759;28;19929;-74
2022/08/02 12:29:59;;;;;;;;;;;;;;;30.09;37.83;99665.34;5016594;28;19925;-74
2022/08/02 12:32:28;;;;;;;;;;;;;;;30.33;38.10;99663.34;5016726;28;19972;-71
2022/08/02 12:35:05;;;;;;;;;;;;;;;30.34;37.59;99657.13;5016530;28;19932;-74
2022/08/02 12:37:34;;;;;;;;;;;;;;;30.26;37.38;99660.38;5014497;28;19988;-74
2022/08/02 12:40:13;;;;;;;;;;;;;;;30.35;37.57;99657.00;5016437;28;19956;-74
2022/08/02 12:42:46;;;;;;;;;;;;;;;30.46;38.18;99656.13;5015635;28;19925;-75
2022/08/02 12:45:15;;;;;;;;;;;;;;;30.58;37.62;99660.38;4998952;28;20299;-74
2022/08/02 12:47:47;;;;;;;;;;;;;;;30.70;37.18;99653.22;5016625;28;19925;-75
2022/08/02 12:50:19;;;;;;;;;;;;;;;30.89;37.01;99656.00;5016334;28;19931;-74
2022/08/02 12:52:48;;;;;;;;;;;;;;;30.97;36.69;99659.69;4999152;28;19972;-74
2022/08/02 12:55:18;;;;;;;;;;;;;;;31.08;36.08;99653.47;5016164;28;19956;-74
2022/08/02 12:57:54;;;;;;;;;;;;;;;31.02;35.81;99659.28;5016239;28;19948;-74
2022/08/02 13:00:23;;;;;;;;;;;;;;;30.85;36.16;99654.59;5016209;28;20023;-70
2022/08/02 13:02:52;;;;;;;;;;;;;;;30.81;36.16;99655.81;5016384;28;20326;-70
2022/08/02 13:05:22;;;;;;;;;;;;;;;30.64;35.84;99649.34;5016259;28;19926;-70
2022/08/02 13:07:51;;;;;;;;;;;;;;;30.47;37.00;99653.34;5016058;28;19972;-71
2022/08/02 13:10:20;;;;;;;;;;;;;;;30.56;36.93;99653.56;5016584;28;19932;-70
2022/08/02 13:12:49;;;;;;;;;;;;;;;30.42;35.87;99655.56;5016233;28;19980;-73
2022/08/02 13:15:17;;;;;;;;;;;;;;;30.30;35.76;99661.81;5016375;28;20399;-70
2022/08/02 13:18:06;;;;;;;;;;;;;;;30.24;35.46;99651.75;5015830;28;19929;-70